createdAt,value
2022-11-26T00:01:16.206Z,8.20
2022-11-26T00:06:39.346Z,10.13
2022-11-26T00:11:42.038Z,10.63
2022-11-26T00:16:44.927Z,8.17
2022-11-26T00:21:47.208Z,7.80
2022-11-26T00:26:49.387Z,10.20
2022-11-26T00:31:51.651Z,9.13
2022-11-26T00:36:54.002Z,8.27
2022-11-26T00:41:56.187Z,10.80
2022-11-26T00:46:58.445Z,7.63
2022-11-26T00:52:00.668Z,10.00
2022-11-26T00:57:02.886Z,9.30
2022-11-26T01:02:08.147Z,11.00
2022-11-26T01:07:11.166Z,10.57
2022-11-26T01:12:14.854Z,9.17
2022-11-26T01:17:17.188Z,13.17
2022-11-26T01:22:23.543Z,9.47
2022-11-26T01:27:25.840Z,8.97
2022-11-26T01:32:29.615Z,11.40
2022-11-26T01:37:32.023Z,10.27
2022-11-26T01:42:45.582Z,11.73
2022-11-26T01:47:48.924Z,12.90
2022-11-26T01:52:51.453Z,10.53
2022-11-26T01:57:53.856Z,8.40
2022-11-26T02:02:56.174Z,13.23
2022-11-26T02:07:58.490Z,12.67
2022-11-26T02:13:00.903Z,13.00
2022-11-26T02:18:06.256Z,12.80
2022-11-26T02:23:29.089Z,11.47
2022-11-26T02:29:09.072Z,8.47
2022-11-26T02:34:23.113Z,10.07
2022-11-26T02:39:28.751Z,13.33
2022-11-26T02:44:41.934Z,6.80
2022-11-26T02:49:45.356Z,7.87
2022-11-26T02:54:49.171Z,9.93
2022-11-26T02:59:51.539Z,9.83
2022-11-26T03:04:57.396Z,9.57
2022-11-26T03:10:01.134Z,12.50
2022-11-26T03:15:06.248Z,9.13
2022-11-26T03:20:09.086Z,9.03
2022-11-26T03:25:11.541Z,10.67
2022-11-26T03:30:14.180Z,7.47
2022-11-26T03:35:16.555Z,8.20
2022-11-26T03:40:19.216Z,10.93
2022-11-26T03:45:21.459Z,8.27
2022-11-26T03:50:23.743Z,9.20
2022-11-26T03:55:26.005Z,12.90
2022-11-26T04:00:28.300Z,8.67
2022-11-26T04:05:31.606Z,9.47
2022-11-26T04:10:33.995Z,13.73
2022-11-26T04:15:36.279Z,10.27
2022-11-26T04:20:38.550Z,9.57
2022-11-26T04:25:40.834Z,8.33
2022-11-26T04:30:43.940Z,10.17
2022-11-26T04:35:46.388Z,10.67
2022-11-26T04:40:49.166Z,9.10
2022-11-26T04:45:51.482Z,6.60
2022-11-26T04:50:53.702Z,6.63
2022-11-26T04:55:55.889Z,9.90
2022-11-26T05:00:58.527Z,8.77
2022-11-26T05:06:00.883Z,9.30
2022-11-26T05:11:03.531Z,7.67
2022-11-26T05:16:06.014Z,9.20
2022-11-26T05:21:08.488Z,10.53
2022-11-26T05:26:10.997Z,6.57
2022-11-26T05:31:13.514Z,8.77
2022-11-26T05:36:16.043Z,8.40
2022-11-26T05:41:18.339Z,11.97
2022-11-26T05:46:20.735Z,6.97
2022-11-26T05:51:23.075Z,8.63
2022-11-26T05:56:25.462Z,6.53
2022-11-26T06:01:27.749Z,5.87
2022-11-26T06:06:30.555Z,5.47
2022-11-26T06:11:32.800Z,5.13
2022-11-26T06:16:35.109Z,5.47
2022-11-26T06:21:37.885Z,4.20
2022-11-26T06:26:40.943Z,4.53
2022-11-26T06:31:43.183Z,4.63
2022-11-26T06:36:45.656Z,5.07
2022-11-26T06:41:48.018Z,4.87
2022-11-26T06:46:50.250Z,5.03
2022-11-26T06:51:54.013Z,4.63
2022-11-26T06:56:56.768Z,9.23
2022-11-26T07:01:59.176Z,6.70
2022-11-26T07:07:01.533Z,6.27
2022-11-26T07:12:04.390Z,8.00
2022-11-26T07:17:06.756Z,12.37
2022-11-26T07:22:08.984Z,8.37
2022-11-26T07:27:11.157Z,9.30
2022-11-26T07:32:13.507Z,7.97
2022-11-26T07:37:16.941Z,6.53
2022-11-26T07:42:19.144Z,8.60
2022-11-26T07:47:21.475Z,9.13
2022-11-26T07:52:23.789Z,7.70
2022-11-26T07:57:26.159Z,7.57
2022-11-26T08:02:28.389Z,8.90
2022-11-26T08:07:30.745Z,7.17
2022-11-26T08:12:33.018Z,6.57
2022-11-26T08:17:35.305Z,9.03
2022-11-26T08:22:37.603Z,8.43
2022-11-26T08:27:39.775Z,7.30
2022-11-26T08:32:42.006Z,8.00
2022-11-26T08:37:44.267Z,7.73
2022-11-26T08:42:46.534Z,8.83
2022-11-26T08:47:48.873Z,9.90
2022-11-26T08:52:53.331Z,11.43
2022-11-26T08:57:55.603Z,7.73
2022-11-26T09:02:57.941Z,8.23
2022-11-26T09:08:00.389Z,10.37
2022-11-26T09:13:02.671Z,10.13
2022-11-26T09:18:05.084Z,13.70
2022-11-26T09:23:07.305Z,9.50
2022-11-26T09:28:09.595Z,10.37
2022-11-26T09:33:11.773Z,7.20
2022-11-26T09:38:14.066Z,8.37
2022-11-26T09:43:53.337Z,9.83
2022-11-26T09:48:56.068Z,14.27
2022-11-26T09:53:58.701Z,9.60
2022-11-26T09:59:05.793Z,10.67
2022-11-26T10:04:17.371Z,11.33
2022-11-26T10:09:57.158Z,10.70
2022-11-26T10:15:18.242Z,10.48
2022-11-26T10:20:38.377Z,8.93
2022-11-26T10:25:45.542Z,10.53
2022-11-26T10:30:56.758Z,13.70
2022-11-26T10:35:59.081Z,15.50
2022-11-26T10:41:01.409Z,8.07
2022-11-26T10:46:03.865Z,9.60
2022-11-26T10:51:30.466Z,11.17
2022-11-26T10:56:37.169Z,8.77
2022-11-26T11:01:40.300Z,12.63
2022-11-26T11:06:44.132Z,11.87
2022-11-26T11:11:46.388Z,9.27
2022-11-26T11:16:52.579Z,8.60
2022-11-26T11:21:55.038Z,15.60
2022-11-26T11:27:00.449Z,11.53
2022-11-26T11:32:28.037Z,11.17
2022-11-26T11:37:30.274Z,8.60
2022-11-26T11:42:32.644Z,9.40
2022-11-26T11:47:37.283Z,9.90
2022-11-26T11:52:39.431Z,14.90
2022-11-26T11:58:11.977Z,14.93
2022-11-26T12:03:41.685Z,12.20
2022-11-26T12:09:20.483Z,10.18
2022-11-26T12:15:05.442Z,17.23
2022-11-26T12:20:31.323Z,12.27
2022-11-26T12:25:37.117Z,10.93
2022-11-26T12:31:06.105Z,15.20
2022-11-26T12:36:17.722Z,8.27
2022-11-26T12:41:21.889Z,10.00
2022-11-26T12:46:35.217Z,8.00
2022-11-26T12:51:43.260Z,11.47
2022-11-26T12:57:01.078Z,11.10
2022-11-26T13:02:26.438Z,10.93
2022-11-26T13:07:48.046Z,12.50
2022-11-26T13:13:06.979Z,13.40
2022-11-26T13:18:34.303Z,10.53
2022-11-26T13:24:01.400Z,10.50
2022-11-26T13:29:06.829Z,12.20
2022-11-26T13:34:30.438Z,13.00
2022-11-26T13:39:54.516Z,9.90
2022-11-26T13:45:19.850Z,11.73
2022-11-26T13:50:42.223Z,11.50
2022-11-26T13:55:48.011Z,11.10
2022-11-26T14:00:50.326Z,11.60
2022-11-26T14:05:52.609Z,10.27
2022-11-26T14:10:54.878Z,12.17
2022-11-26T14:16:03.098Z,15.53
2022-11-26T14:21:11.854Z,15.03
2022-11-26T14:26:22.611Z,15.10
2022-11-26T14:31:28.314Z,13.00
2022-11-26T14:36:31.495Z,18.80
2022-11-26T14:42:03.788Z,17.10
2022-11-26T14:47:20.758Z,13.57
2022-11-26T14:52:26.852Z,14.50
2022-11-26T14:57:38.052Z,10.63
2022-11-26T15:02:43.272Z,15.33
2022-11-26T15:07:46.414Z,14.83
2022-11-26T15:12:50.872Z,11.33
2022-11-26T15:17:58.655Z,12.67
2022-11-26T15:23:03.015Z,15.27
2022-11-26T15:28:09.734Z,16.03
2022-11-26T15:33:17.847Z,13.07
2022-11-26T15:38:21.242Z,15.37
2022-11-26T15:43:32.652Z,12.90
2022-11-26T15:48:53.822Z,15.50
2022-11-26T15:53:56.266Z,15.27
2022-11-26T15:59:02.458Z,15.90
2022-11-26T16:04:06.691Z,17.23
2022-11-26T16:09:17.627Z,15.97
2022-11-26T16:14:35.383Z,16.07
2022-11-26T16:19:38.246Z,17.20
2022-11-26T16:24:46.088Z,18.23
2022-11-26T16:29:48.538Z,13.33
2022-11-26T16:34:50.801Z,12.67
2022-11-26T16:40:10.048Z,14.67
2022-11-26T16:45:14.708Z,15.98
2022-11-26T16:50:19.475Z,16.20
2022-11-26T16:55:27.382Z,17.87
2022-11-26T17:00:29.715Z,13.77
2022-11-26T17:05:32.040Z,16.43
2022-11-26T17:10:34.367Z,16.93
2022-11-26T17:15:36.690Z,22.83
2022-11-26T17:20:39.093Z,15.93
2022-11-26T17:25:44.069Z,14.77
2022-11-26T17:30:48.617Z,17.97
2022-11-26T17:35:51.002Z,18.33
2022-11-26T17:40:53.396Z,15.47
2022-11-26T17:45:59.498Z,20.10
2022-11-26T17:51:01.882Z,16.97
2022-11-26T17:56:04.954Z,15.73
2022-11-26T18:01:07.383Z,15.13
2022-11-26T18:06:17.632Z,18.27
2022-11-26T18:11:19.919Z,17.87
2022-11-26T18:16:22.271Z,14.90
2022-11-26T18:21:24.578Z,16.33
2022-11-26T18:26:28.487Z,14.67
2022-11-26T18:31:37.967Z,16.43
2022-11-26T18:36:42.377Z,15.73
2022-11-26T18:41:44.766Z,19.43
2022-11-26T18:46:47.186Z,15.57
2022-11-26T18:51:49.649Z,19.93
2022-11-26T18:56:52.240Z,15.27
2022-11-26T19:01:54.509Z,14.47
2022-11-26T19:06:56.866Z,13.93
2022-11-26T19:11:59.159Z,12.40
2022-11-26T19:17:01.532Z,15.40
2022-11-26T19:22:03.916Z,21.97
2022-11-26T19:27:06.157Z,16.63
2022-11-26T19:32:10.635Z,18.00
2022-11-26T19:37:12.932Z,16.87
2022-11-26T19:42:15.252Z,16.10
2022-11-26T19:47:17.584Z,16.00
2022-11-26T19:52:19.873Z,18.07
2022-11-26T19:57:22.077Z,13.80
2022-11-26T20:02:24.434Z,16.90
2022-11-26T20:07:26.818Z,14.63
2022-11-26T20:12:32.567Z,15.17
2022-11-26T20:17:34.790Z,18.17
2022-11-26T20:22:37.843Z,15.23
2022-11-26T20:27:40.332Z,17.90
2022-11-26T20:32:42.566Z,15.23
2022-11-26T20:37:44.853Z,17.40
2022-11-26T20:42:47.063Z,16.00
2022-11-26T20:47:53.487Z,16.70
2022-11-26T20:52:55.900Z,14.47
2022-11-26T20:57:59.126Z,13.27
2022-11-26T21:03:01.366Z,16.43
2022-11-26T21:08:03.821Z,15.73
2022-11-26T21:13:06.800Z,17.10
2022-11-26T21:18:09.677Z,12.17
2022-11-26T21:23:13.267Z,19.33
2022-11-26T21:28:15.616Z,13.97
2022-11-26T21:33:17.872Z,14.43
2022-11-26T21:38:23.903Z,15.77
2022-11-26T21:43:28.707Z,16.80
2022-11-26T21:48:31.459Z,12.70
2022-11-26T21:53:34.078Z,14.70
2022-11-26T21:58:37.369Z,14.00
2022-11-26T22:03:42.634Z,17.37
2022-11-26T22:08:47.594Z,15.17
2022-11-26T22:13:50.125Z,17.67
2022-11-26T22:18:53.563Z,17.10
2022-11-26T22:23:56.369Z,16.77
2022-11-26T22:28:58.837Z,18.53
2022-11-26T22:34:22.353Z,13.30
2022-11-26T22:39:24.580Z,15.93
2022-11-26T22:44:26.863Z,16.07
2022-11-26T22:49:29.144Z,16.17
2022-11-26T22:54:31.469Z,13.70
2022-11-26T22:59:33.618Z,13.67
2022-11-26T23:04:35.882Z,14.43
2022-11-26T23:09:42.457Z,12.13
2022-11-26T23:14:47.598Z,13.87
2022-11-26T23:19:49.832Z,17.23
2022-11-26T23:24:52.125Z,13.10
2022-11-26T23:29:54.538Z,14.80
2022-11-26T23:34:56.825Z,13.87
2022-11-26T23:39:59.030Z,14.10
2022-11-26T23:45:01.572Z,13.07
2022-11-26T23:50:06.378Z,12.10
2022-11-26T23:55:09.274Z,13.53
